Terminal Aerodrome Forecast
Issued by NWS

Home | Current Version | Previous Version | Text Only | Print | Product List | Glossary On
Versions: 1 2 3 4 5 6 7 8 9 10 11 12 13 14 15
000
FTUS43 KIWX 231200 AAA
TAFSBN
TAF AMD
KSBN 231242Z 2313/2412 01015G20KT P6SM SCT013 BKN050
      TEMPO 2313/2315 BKN015
     FM231500 35015G20KT P6SM SCT025
     FM240000 36010KT P6SM FEW250
     FM240900 02004KT P6SM SKC=

USA.gov is the U.S. government's official web portal to all federal, state and local government web resources and services.